Ville De Bordeaux — FZCE — position and weather

sailwx.info

Track history (hours):
 
Tides and Currents Weather Stations Pressure Air Temp Water Temp Dewpoint Dewpoint Depression Visibility Wind Speed Wind Dir Waves Ship Positions

Ville De Bordeaux

Last reported at 2015-Sep-03 22:27 UTC. Time now 2015-Sep-03 23:33 UTC.
Position N 46°22' W 002°18'.

Length 150 m; beam 24 m.

Type: Ship. MMSI: 228084000.

Date/timePositionNaut miles runAvg speedWind from/ knotsBaromVisibWave heightAir tempDewpointWater temp
2015-Sep-03 22:27N 46°22' W 002°18'55 3.9
2015-Sep-03 08:12N 47°17' W 002°10'0 0.0
2015-Sep-03 07:33N 47°17' W 002°10'0 0.0
2015-Sep-03 06:30N 47°17' W 002°10'0 0.0
2015-Sep-03 05:21N 47°17' W 002°10'0 0.0
2015-Sep-03 04:27N 47°17' W 002°10'0 0.0
2015-Sep-03 03:33N 47°17' W 002°10'0 0.0
2015-Sep-03 02:18N 47°17' W 002°10'0 0.0
2015-Sep-03 01:24N 47°17' W 002°10'0 0.0
2015-Sep-03 00:30N 47°17' W 002°10'0 0.0
2015-Sep-02 23:27N 47°17' W 002°10'0 0.0
2015-Sep-02 22:12N 47°17' W 002°10'0 0.0
2015-Sep-02 20:21N 47°17' W 002°10'7 2.3
2015-Sep-02 17:05N 47°12' W 002°17'58111.3
2015-Aug-31 13:33N 39°14' W 009°52'1615.8
2015-Aug-31 12:34N 38°59' W 009°52'1615.9
2015-Aug-31 11:33N 38°43' W 009°51'1515.3
2015-Aug-31 10:33N 38°27' W 009°48'  
2015-Aug-28 00:26N 40°35' E 013°43'1516.4
2015-Aug-27 23:33N 40°41' E 014°00'15 3.4
2015-Aug-27 19:13N 40°50' E 014°16'6 9.2
2015-Aug-27 18:33N 40°45' E 014°14'1616.0
2015-Aug-27 17:33N 40°31' E 014°01'28312.7
2015-Aug-26 19:14N 36°49' E 010°18'0 0.0
2015-Aug-26 18:32N 36°49' E 010°18'3411.3
2015-Aug-26 15:33N 37°22' E 010°20'1613.8
2015-Aug-26 14:25N 37°33' E 010°06'38910.5
2015-Aug-25 01:22N 36°52' E 001°60'911.0
2015-Aug-25 00:33N 36°51' E 001°49'1110.9
2015-Aug-24 23:33N 36°50' E 001°35'  
Track history (hours):
 
Tides and Currents Weather Stations Pressure Air Temp Water Temp Dewpoint Dewpoint Depression Visibility Wind Speed Wind Dir Waves Ship Positions

Ville De Bordeaux

Last reported at 2015-Sep-03 22:27 UTC. Time now 2015-Sep-03 23:33 UTC.
Position N 46°22' W 002°18'.

Length 150 m; beam 24 m.

Type: Ship. MMSI: 228084000.

Date/timePositionNaut miles runAvg speedWind from/ knotsBaromVisibWave heightAir tempDewpointWater temp
2015-Sep-03 22:27N 46°22' W 002°18'55 3.9
2015-Sep-03 08:12N 47°17' W 002°10'0 0.0
2015-Sep-03 07:33N 47°17' W 002°10'0 0.0
2015-Sep-03 06:30N 47°17' W 002°10'0 0.0
2015-Sep-03 05:21N 47°17' W 002°10'0 0.0
2015-Sep-03 04:27N 47°17' W 002°10'0 0.0
2015-Sep-03 03:33N 47°17' W 002°10'0 0.0
2015-Sep-03 02:18N 47°17' W 002°10'0 0.0
2015-Sep-03 01:24N 47°17' W 002°10'0 0.0
2015-Sep-03 00:30N 47°17' W 002°10'0 0.0
2015-Sep-02 23:27N 47°17' W 002°10'0 0.0
2015-Sep-02 22:12N 47°17' W 002°10'0 0.0
2015-Sep-02 20:21N 47°17' W 002°10'7 2.3
2015-Sep-02 17:05N 47°12' W 002°17'58111.3
2015-Aug-31 13:33N 39°14' W 009°52'1615.8
2015-Aug-31 12:34N 38°59' W 009°52'1615.9
2015-Aug-31 11:33N 38°43' W 009°51'1515.3
2015-Aug-31 10:33N 38°27' W 009°48'  
2015-Aug-28 00:26N 40°35' E 013°43'1516.4
2015-Aug-27 23:33N 40°41' E 014°00'15 3.4
2015-Aug-27 19:13N 40°50' E 014°16'6 9.2
2015-Aug-27 18:33N 40°45' E 014°14'1616.0
2015-Aug-27 17:33N 40°31' E 014°01'28312.7
2015-Aug-26 19:14N 36°49' E 010°18'0 0.0
2015-Aug-26 18:32N 36°49' E 010°18'3411.3
2015-Aug-26 15:33N 37°22' E 010°20'1613.8
2015-Aug-26 14:25N 37°33' E 010°06'38910.5
2015-Aug-25 01:22N 36°52' E 001°60'911.0
2015-Aug-25 00:33N 36°51' E 001°49'1110.9
2015-Aug-24 23:33N 36°50' E 001°35'  

Dump ship's entire track history